sensor_id;sensor_type;location;lat;lon;timestamp;P1;durP1;ratioP1;P2;durP2;ratioP2
48613;SDS011;34408;51.426;5.444;2023-04-15T00:01:47;9.02;;;2.40;;
48613;SDS011;34408;51.426;5.444;2023-04-15T00:04:16;8.02;;;2.63;;
48613;SDS011;34408;51.426;5.444;2023-04-15T00:06:48;7.35;;;2.78;;
48613;SDS011;34408;51.426;5.444;2023-04-15T00:09:18;6.95;;;2.28;;
48613;SDS011;34408;51.426;5.444;2023-04-15T00:11:46;7.40;;;2.72;;
48613;SDS011;34408;51.426;5.444;2023-04-15T00:14:14;6.80;;;2.97;;
48613;SDS011;34408;51.426;5.444;2023-04-15T00:16:41;10.15;;;2.22;;
48613;SDS011;34408;51.426;5.444;2023-04-15T00:19:09;7.72;;;2.38;;
48613;SDS011;34408;51.426;5.444;2023-04-15T00:21:38;7.88;;;2.00;;
48613;SDS011;34408;51.426;5.444;2023-04-15T00:24:06;7.35;;;2.85;;
48613;SDS011;34408;51.426;5.444;2023-04-15T00:26:34;8.65;;;2.85;;
48613;SDS011;34408;51.426;5.444;2023-04-15T00:29:02;10.15;;;2.50;;
48613;SDS011;34408;51.426;5.444;2023-04-15T00:31:29;4.68;;;2.35;;
48613;SDS011;34408;51.426;5.444;2023-04-15T00:33:58;7.70;;;2.53;;
48613;SDS011;34408;51.426;5.444;2023-04-15T00:36:25;5.32;;;2.40;;
48613;SDS011;34408;51.426;5.444;2023-04-15T00:38:54;4.38;;;2.03;;
48613;SDS011;34408;51.426;5.444;2023-04-15T00:41:23;11.48;;;3.03;;
48613;SDS011;34408;51.426;5.444;2023-04-15T00:43:50;4.97;;;2.38;;
48613;SDS011;34408;51.426;5.444;2023-04-15T00:46:18;5.07;;;2.38;;
48613;SDS011;34408;51.426;5.444;2023-04-15T00:48:47;8.05;;;3.13;;
48613;SDS011;34408;51.426;5.444;2023-04-15T00:51:15;5.55;;;2.60;;
48613;SDS011;34408;51.426;5.444;2023-04-15T00:53:42;8.35;;;3.55;;
48613;SDS011;34408;51.426;5.444;2023-04-15T00:56:11;6.28;;;2.83;;
48613;SDS011;34408;51.426;5.444;2023-04-15T00:58:40;5.97;;;2.90;;
48613;SDS011;34408;51.426;5.444;2023-04-15T01:01:08;3.83;;;2.33;;
48613;SDS011;34408;51.426;5.444;2023-04-15T01:03:36;6.93;;;2.95;;
48613;SDS011;34408;51.426;5.444;2023-04-15T01:06:04;5.30;;;2.83;;
48613;SDS011;34408;51.426;5.444;2023-04-15T01:08:32;8.65;;;3.22;;
48613;SDS011;34408;51.426;5.444;2023-04-15T01:11:00;6.43;;;2.92;;
48613;SDS011;34408;51.426;5.444;2023-04-15T01:13:31;10.95;;;3.47;;
48613;SDS011;34408;51.426;5.444;2023-04-15T01:16:00;10.02;;;3.92;;
48613;SDS011;34408;51.426;5.444;2023-04-15T01:18:28;6.78;;;3.10;;
48613;SDS011;34408;51.426;5.444;2023-04-15T01:20:56;7.00;;;3.05;;
48613;SDS011;34408;51.426;5.444;2023-04-15T01:23:24;6.45;;;3.20;;
48613;SDS011;34408;51.426;5.444;2023-04-15T01:25:53;5.70;;;2.90;;
48613;SDS011;34408;51.426;5.444;2023-04-15T01:28:23;5.28;;;2.63;;
48613;SDS011;34408;51.426;5.444;2023-04-15T01:31:03;9.27;;;2.97;;
48613;SDS011;34408;51.426;5.444;2023-04-15T01:33:33;7.47;;;3.17;;
48613;SDS011;34408;51.426;5.444;2023-04-15T01:36:02;8.25;;;3.35;;
48613;SDS011;34408;51.426;5.444;2023-04-15T01:38:30;6.65;;;3.72;;
48613;SDS011;34408;51.426;5.444;2023-04-15T01:41:00;10.30;;;3.47;;
48613;SDS011;34408;51.426;5.444;2023-04-15T01:43:28;4.95;;;2.42;;
48613;SDS011;34408;51.426;5.444;2023-04-15T01:45:56;5.57;;;3.28;;
48613;SDS011;34408;51.426;5.444;2023-04-15T01:48:24;8.82;;;3.60;;
48613;SDS011;34408;51.426;5.444;2023-04-15T01:50:53;6.80;;;3.08;;
48613;SDS011;34408;51.426;5.444;2023-04-15T01:53:23;8.70;;;2.97;;
48613;SDS011;34408;51.426;5.444;2023-04-15T01:55:51;7.25;;;2.83;;
48613;SDS011;34408;51.426;5.444;2023-04-15T01:58:20;7.03;;;3.10;;
48613;SDS011;34408;51.426;5.444;2023-04-15T02:00:48;6.07;;;3.38;;
48613;SDS011;34408;51.426;5.444;2023-04-15T02:03:16;6.68;;;3.33;;
48613;SDS011;34408;51.426;5.444;2023-04-15T02:05:44;9.32;;;3.50;;
48613;SDS011;34408;51.426;5.444;2023-04-15T02:08:12;10.68;;;3.92;;
48613;SDS011;34408;51.426;5.444;2023-04-15T02:10:39;9.70;;;3.97;;
48613;SDS011;34408;51.426;5.444;2023-04-15T02:13:07;8.70;;;3.95;;
48613;SDS011;34408;51.426;5.444;2023-04-15T02:15:37;8.05;;;3.20;;
48613;SDS011;34408;51.426;5.444;2023-04-15T02:18:05;14.20;;;4.07;;
48613;SDS011;34408;51.426;5.444;2023-04-15T02:20:32;7.22;;;3.20;;
48613;SDS011;34408;51.426;5.444;2023-04-15T02:23:01;9.75;;;3.80;;
48613;SDS011;34408;51.426;5.444;2023-04-15T02:25:32;8.77;;;3.45;;
48613;SDS011;34408;51.426;5.444;2023-04-15T02:28:00;7.55;;;3.53;;
48613;SDS011;34408;51.426;5.444;2023-04-15T02:30:28;6.35;;;3.33;;
48613;SDS011;34408;51.426;5.444;2023-04-15T02:32:57;8.18;;;3.38;;
48613;SDS011;34408;51.426;5.444;2023-04-15T02:35:25;10.13;;;3.70;;
48613;SDS011;34408;51.426;5.444;2023-04-15T02:37:52;8.75;;;3.78;;
48613;SDS011;34408;51.426;5.444;2023-04-15T02:40:20;9.13;;;3.65;;
48613;SDS011;34408;51.426;5.444;2023-04-15T02:42:48;9.30;;;3.53;;
48613;SDS011;34408;51.426;5.444;2023-04-15T02:45:16;7.15;;;3.42;;
48613;SDS011;34408;51.426;5.444;2023-04-15T02:47:48;8.27;;;3.90;;
48613;SDS011;34408;51.426;5.444;2023-04-15T02:50:18;8.23;;;3.45;;
48613;SDS011;34408;51.426;5.444;2023-04-15T02:52:46;8.60;;;4.50;;
48613;SDS011;34408;51.426;5.444;2023-04-15T02:55:13;6.97;;;3.78;;
48613;SDS011;34408;51.426;5.444;2023-04-15T02:57:43;7.75;;;3.63;;
48613;SDS011;34408;51.426;5.444;2023-04-15T03:00:11;8.50;;;3.40;;
48613;SDS011;34408;51.426;5.444;2023-04-15T03:02:40;8.52;;;4.00;;
48613;SDS011;34408;51.426;5.444;2023-04-15T03:05:10;9.00;;;3.78;;
48613;SDS011;34408;51.426;5.444;2023-04-15T03:07:40;9.50;;;3.75;;
48613;SDS011;34408;51.426;5.444;2023-04-15T03:10:08;4.78;;;3.40;;
48613;SDS011;34408;51.426;5.444;2023-04-15T03:12:37;8.60;;;3.85;;
48613;SDS011;34408;51.426;5.444;2023-04-15T03:15:06;8.43;;;4.40;;
48613;SDS011;34408;51.426;5.444;2023-04-15T03:17:35;8.38;;;3.95;;
48613;SDS011;34408;51.426;5.444;2023-04-15T03:20:03;8.93;;;4.13;;
48613;SDS011;34408;51.426;5.444;2023-04-15T03:22:32;8.93;;;3.83;;
48613;SDS011;34408;51.426;5.444;2023-04-15T03:25:01;10.65;;;4.07;;
48613;SDS011;34408;51.426;5.444;2023-04-15T03:27:29;7.53;;;3.80;;
48613;SDS011;34408;51.426;5.444;2023-04-15T03:29:57;6.93;;;3.72;;
48613;SDS011;34408;51.426;5.444;2023-04-15T03:32:25;10.43;;;3.63;;
48613;SDS011;34408;51.426;5.444;2023-04-15T03:34:52;10.52;;;3.90;;
48613;SDS011;34408;51.426;5.444;2023-04-15T03:37:20;8.55;;;4.72;;
48613;SDS011;34408;51.426;5.444;2023-04-15T03:39:48;8.63;;;3.88;;
48613;SDS011;34408;51.426;5.444;2023-04-15T03:42:17;9.10;;;3.95;;
48613;SDS011;34408;51.426;5.444;2023-04-15T03:44:45;8.15;;;4.38;;
48613;SDS011;34408;51.426;5.444;2023-04-15T03:47:13;7.47;;;3.95;;
48613;SDS011;34408;51.426;5.444;2023-04-15T03:49:41;7.57;;;3.72;;
48613;SDS011;34408;51.426;5.444;2023-04-15T03:52:08;7.32;;;3.72;;
48613;SDS011;34408;51.426;5.444;2023-04-15T03:54:36;9.18;;;4.03;;
48613;SDS011;34408;51.426;5.444;2023-04-15T03:57:04;7.63;;;3.67;;
48613;SDS011;34408;51.426;5.444;2023-04-15T03:59:33;6.88;;;3.60;;
48613;SDS011;34408;51.426;5.444;2023-04-15T04:02:00;6.47;;;3.95;;
48613;SDS011;34408;51.426;5.444;2023-04-15T04:04:28;8.68;;;4.28;;
48613;SDS011;34408;51.426;5.444;2023-04-15T04:06:57;8.48;;;4.45;;
48613;SDS011;34408;51.426;5.444;2023-04-15T04:09:24;6.75;;;4.05;;
48613;SDS011;34408;51.426;5.444;2023-04-15T04:11:53;5.78;;;3.63;;
48613;SDS011;34408;51.426;5.444;2023-04-15T04:14:21;9.07;;;3.85;;
48613;SDS011;34408;51.426;5.444;2023-04-15T04:16:55;10.27;;;3.88;;
48613;SDS011;34408;51.426;5.444;2023-04-15T04:19:23;6.88;;;4.13;;
48613;SDS011;34408;51.426;5.444;2023-04-15T04:21:51;7.55;;;3.80;;
48613;SDS011;34408;51.426;5.444;2023-04-15T04:24:19;9.23;;;4.07;;
48613;SDS011;34408;51.426;5.444;2023-04-15T04:26:46;6.32;;;4.05;;
48613;SDS011;34408;51.426;5.444;2023-04-15T04:29:14;9.80;;;3.90;;
48613;SDS011;34408;51.426;5.444;2023-04-15T04:31:42;7.57;;;4.53;;
48613;SDS011;34408;51.426;5.444;2023-04-15T04:34:11;7.88;;;3.92;;
48613;SDS011;34408;51.426;5.444;2023-04-15T04:36:39;7.93;;;3.90;;
48613;SDS011;34408;51.426;5.444;2023-04-15T04:39:06;7.97;;;4.05;;
48613;SDS011;34408;51.426;5.444;2023-04-15T04:41:34;6.05;;;3.60;;
48613;SDS011;34408;51.426;5.444;2023-04-15T04:44:02;11.25;;;4.53;;
48613;SDS011;34408;51.426;5.444;2023-04-15T04:46:30;7.75;;;4.10;;
48613;SDS011;34408;51.426;5.444;2023-04-15T04:48:58;5.97;;;3.40;;
48613;SDS011;34408;51.426;5.444;2023-04-15T04:51:27;6.43;;;3.88;;
48613;SDS011;34408;51.426;5.444;2023-04-15T04:53:55;8.48;;;3.75;;
48613;SDS011;34408;51.426;5.444;2023-04-15T04:56:23;5.47;;;3.33;;
48613;SDS011;34408;51.426;5.444;2023-04-15T04:58:50;6.93;;;4.22;;
48613;SDS011;34408;51.426;5.444;2023-04-15T05:01:18;6.10;;;3.85;;
48613;SDS011;34408;51.426;5.444;2023-04-15T05:03:46;7.15;;;3.80;;
48613;SDS011;34408;51.426;5.444;2023-04-15T05:06:14;7.05;;;3.80;;
48613;SDS011;34408;51.426;5.444;2023-04-15T05:08:43;8.05;;;4.13;;
48613;SDS011;34408;51.426;5.444;2023-04-15T05:11:12;9.75;;;3.88;;
48613;SDS011;34408;51.426;5.444;2023-04-15T05:13:39;6.07;;;3.33;;
48613;SDS011;34408;51.426;5.444;2023-04-15T05:16:07;7.60;;;3.97;;
48613;SDS011;34408;51.426;5.444;2023-04-15T05:18:35;7.00;;;3.72;;
48613;SDS011;34408;51.426;5.444;2023-04-15T05:21:03;5.72;;;3.83;;
48613;SDS011;34408;51.426;5.444;2023-04-15T05:23:31;6.57;;;3.90;;
48613;SDS011;34408;51.426;5.444;2023-04-15T05:26:01;8.00;;;3.60;;
48613;SDS011;34408;51.426;5.444;2023-04-15T05:28:29;6.35;;;3.72;;
48613;SDS011;34408;51.426;5.444;2023-04-15T05:30:57;7.25;;;4.05;;
48613;SDS011;34408;51.426;5.444;2023-04-15T05:33:25;6.47;;;3.78;;
48613;SDS011;34408;51.426;5.444;2023-04-15T05:35:53;6.57;;;4.07;;
48613;SDS011;34408;51.426;5.444;2023-04-15T05:38:20;7.03;;;4.22;;
48613;SDS011;34408;51.426;5.444;2023-04-15T05:40:48;5.60;;;3.63;;
48613;SDS011;34408;51.426;5.444;2023-04-15T05:43:20;8.98;;;4.45;;
48613;SDS011;34408;51.426;5.444;2023-04-15T05:45:48;5.10;;;3.72;;
48613;SDS011;34408;51.426;5.444;2023-04-15T05:48:15;5.57;;;3.80;;
48613;SDS011;34408;51.426;5.444;2023-04-15T05:50:43;6.30;;;3.72;;
48613;SDS011;34408;51.426;5.444;2023-04-15T05:53:11;7.05;;;3.90;;
48613;SDS011;34408;51.426;5.444;2023-04-15T05:55:39;5.78;;;3.83;;
48613;SDS011;34408;51.426;5.444;2023-04-15T05:58:06;8.95;;;4.25;;
48613;SDS011;34408;51.426;5.444;2023-04-15T06:00:36;8.80;;;4.88;;
48613;SDS011;34408;51.426;5.444;2023-04-15T06:03:03;13.32;;;6.00;;
48613;SDS011;34408;51.426;5.444;2023-04-15T06:05:32;7.47;;;4.93;;
48613;SDS011;34408;51.426;5.444;2023-04-15T06:07:59;7.22;;;4.90;;
48613;SDS011;34408;51.426;5.444;2023-04-15T06:10:27;10.90;;;5.28;;
48613;SDS011;34408;51.426;5.444;2023-04-15T06:12:56;10.00;;;5.43;;
48613;SDS011;34408;51.426;5.444;2023-04-15T06:15:23;9.95;;;5.20;;
48613;SDS011;34408;51.426;5.444;2023-04-15T06:17:53;7.68;;;5.28;;
48613;SDS011;34408;51.426;5.444;2023-04-15T06:20:20;9.75;;;4.93;;
48613;SDS011;34408;51.426;5.444;2023-04-15T06:22:49;14.05;;;5.43;;
48613;SDS011;34408;51.426;5.444;2023-04-15T06:25:16;8.13;;;5.25;;
48613;SDS011;34408;51.426;5.444;2023-04-15T06:27:45;8.00;;;4.95;;
48613;SDS011;34408;51.426;5.444;2023-04-15T06:30:13;6.22;;;4.80;;
48613;SDS011;34408;51.426;5.444;2023-04-15T06:32:41;6.90;;;5.00;;
48613;SDS011;34408;51.426;5.444;2023-04-15T06:35:10;10.30;;;5.55;;
48613;SDS011;34408;51.426;5.444;2023-04-15T06:37:38;9.43;;;5.03;;
48613;SDS011;34408;51.426;5.444;2023-04-15T06:40:06;13.02;;;5.75;;
48613;SDS011;34408;51.426;5.444;2023-04-15T06:42:35;8.07;;;4.95;;
48613;SDS011;34408;51.426;5.444;2023-04-15T06:45:04;8.35;;;4.97;;
48613;SDS011;34408;51.426;5.444;2023-04-15T06:47:32;8.25;;;4.93;;
48613;SDS011;34408;51.426;5.444;2023-04-15T06:50:00;9.05;;;5.13;;
48613;SDS011;34408;51.426;5.444;2023-04-15T06:52:30;6.72;;;4.75;;
48613;SDS011;34408;51.426;5.444;2023-04-15T06:54:58;7.03;;;4.38;;
48613;SDS011;34408;51.426;5.444;2023-04-15T06:57:26;11.15;;;5.30;;
48613;SDS011;34408;51.426;5.444;2023-04-15T06:59:54;8.43;;;4.80;;
48613;SDS011;34408;51.426;5.444;2023-04-15T07:02:22;7.65;;;4.78;;
48613;SDS011;34408;51.426;5.444;2023-04-15T07:04:50;6.55;;;4.38;;
48613;SDS011;34408;51.426;5.444;2023-04-15T07:07:18;7.65;;;4.43;;
48613;SDS011;34408;51.426;5.444;2023-04-15T07:09:47;5.88;;;4.18;;
48613;SDS011;34408;51.426;5.444;2023-04-15T07:12:14;5.68;;;3.95;;
48613;SDS011;34408;51.426;5.444;2023-04-15T07:14:43;7.13;;;3.88;;
48613;SDS011;34408;51.426;5.444;2023-04-15T07:17:11;6.47;;;4.10;;
48613;SDS011;34408;51.426;5.444;2023-04-15T07:19:38;7.70;;;3.88;;
48613;SDS011;34408;51.426;5.444;2023-04-15T07:22:07;6.65;;;3.67;;
48613;SDS011;34408;51.426;5.444;2023-04-15T07:24:34;5.28;;;3.88;;
48613;SDS011;34408;51.426;5.444;2023-04-15T07:27:03;5.93;;;3.75;;
48613;SDS011;34408;51.426;5.444;2023-04-15T07:29:31;8.45;;;4.22;;
48613;SDS011;34408;51.426;5.444;2023-04-15T07:31:59;7.55;;;4.18;;
48613;SDS011;34408;51.426;5.444;2023-04-15T07:34:27;9.25;;;4.10;;
48613;SDS011;34408;51.426;5.444;2023-04-15T07:36:57;7.25;;;3.60;;
48613;SDS011;34408;51.426;5.444;2023-04-15T07:39:25;5.90;;;3.95;;
48613;SDS011;34408;51.426;5.444;2023-04-15T07:41:54;3.78;;;2.80;;
48613;SDS011;34408;51.426;5.444;2023-04-15T07:44:23;6.28;;;3.53;;
48613;SDS011;34408;51.426;5.444;2023-04-15T07:46:51;4.15;;;3.00;;
48613;SDS011;34408;51.426;5.444;2023-04-15T07:49:19;4.47;;;2.78;;
48613;SDS011;34408;51.426;5.444;2023-04-15T07:51:46;5.95;;;3.17;;
48613;SDS011;34408;51.426;5.444;2023-04-15T07:54:15;7.45;;;4.03;;
48613;SDS011;34408;51.426;5.444;2023-04-15T07:56:42;5.20;;;3.67;;
48613;SDS011;34408;51.426;5.444;2023-04-15T07:59:10;5.90;;;3.47;;
48613;SDS011;34408;51.426;5.444;2023-04-15T08:01:39;5.22;;;3.70;;
48613;SDS011;34408;51.426;5.444;2023-04-15T08:04:07;6.97;;;3.58;;
48613;SDS011;34408;51.426;5.444;2023-04-15T08:06:36;5.82;;;2.95;;
48613;SDS011;34408;51.426;5.444;2023-04-15T08:09:05;4.63;;;2.92;;
48613;SDS011;34408;51.426;5.444;2023-04-15T08:11:33;5.38;;;3.20;;
48613;SDS011;34408;51.426;5.444;2023-04-15T08:14:01;5.82;;;3.00;;
48613;SDS011;34408;51.426;5.444;2023-04-15T08:16:29;6.28;;;3.42;;
48613;SDS011;34408;51.426;5.444;2023-04-15T08:18:58;5.45;;;3.80;;
48613;SDS011;34408;51.426;5.444;2023-04-15T08:21:26;8.18;;;4.68;;
48613;SDS011;34408;51.426;5.444;2023-04-15T08:23:56;8.02;;;3.67;;
48613;SDS011;34408;51.426;5.444;2023-04-15T08:26:23;8.40;;;3.80;;
48613;SDS011;34408;51.426;5.444;2023-04-15T08:28:52;5.85;;;3.75;;
48613;SDS011;34408;51.426;5.444;2023-04-15T08:31:19;7.05;;;4.32;;
48613;SDS011;34408;51.426;5.444;2023-04-15T08:33:47;6.10;;;4.10;;
48613;SDS011;34408;51.426;5.444;2023-04-15T08:36:18;6.65;;;3.72;;
48613;SDS011;34408;51.426;5.444;2023-04-15T08:38:46;5.68;;;4.30;;
48613;SDS011;34408;51.426;5.444;2023-04-15T08:41:17;6.78;;;3.90;;
48613;SDS011;34408;51.426;5.444;2023-04-15T08:43:51;4.72;;;3.40;;
48613;SDS011;34408;51.426;5.444;2023-04-15T08:46:20;6.38;;;3.63;;
48613;SDS011;34408;51.426;5.444;2023-04-15T08:48:49;5.40;;;3.65;;
48613;SDS011;34408;51.426;5.444;2023-04-15T08:51:18;5.53;;;3.15;;
48613;SDS011;34408;51.426;5.444;2023-04-15T08:53:50;5.32;;;3.15;;
48613;SDS011;34408;51.426;5.444;2023-04-15T08:56:18;9.18;;;3.75;;
48613;SDS011;34408;51.426;5.444;2023-04-15T08:58:51;7.75;;;3.30;;
48613;SDS011;34408;51.426;5.444;2023-04-15T09:01:19;9.45;;;3.17;;
48613;SDS011;34408;51.426;5.444;2023-04-15T09:03:48;4.38;;;3.25;;
48613;SDS011;34408;51.426;5.444;2023-04-15T09:06:16;6.43;;;2.97;;
48613;SDS011;34408;51.426;5.444;2023-04-15T09:08:46;5.03;;;3.20;;
48613;SDS011;34408;51.426;5.444;2023-04-15T09:11:14;5.93;;;3.05;;
48613;SDS011;34408;51.426;5.444;2023-04-15T09:13:45;5.28;;;3.13;;
48613;SDS011;34408;51.426;5.444;2023-04-15T09:16:13;6.35;;;2.90;;
48613;SDS011;34408;51.426;5.444;2023-04-15T09:18:42;9.18;;;3.35;;
48613;SDS011;34408;51.426;5.444;2023-04-15T09:21:10;5.68;;;3.03;;
48613;SDS011;34408;51.426;5.444;2023-04-15T09:23:52;4.55;;;2.67;;
48613;SDS011;34408;51.426;5.444;2023-04-15T09:26:29;3.83;;;2.17;;
48613;SDS011;34408;51.426;5.444;2023-04-15T09:29:01;5.95;;;3.00;;
48613;SDS011;34408;51.426;5.444;2023-04-15T09:31:31;5.63;;;2.92;;
48613;SDS011;34408;51.426;5.444;2023-04-15T09:33:58;5.72;;;3.28;;
48613;SDS011;34408;51.426;5.444;2023-04-15T09:36:27;5.07;;;3.58;;
48613;SDS011;34408;51.426;5.444;2023-04-15T09:38:57;5.95;;;3.85;;
48613;SDS011;34408;51.426;5.444;2023-04-15T09:41:25;8.15;;;2.90;;
48613;SDS011;34408;51.426;5.444;2023-04-15T09:43:53;4.20;;;2.80;;
48613;SDS011;34408;51.426;5.444;2023-04-15T09:46:25;4.93;;;2.80;;
48613;SDS011;34408;51.426;5.444;2023-04-15T09:49:07;7.40;;;3.13;;
48613;SDS011;34408;51.426;5.444;2023-04-15T09:51:35;9.88;;;3.72;;
48613;SDS011;34408;51.426;5.444;2023-04-15T09:54:05;7.05;;;3.42;;
48613;SDS011;34408;51.426;5.444;2023-04-15T09:56:33;6.53;;;3.63;;
48613;SDS011;34408;51.426;5.444;2023-04-15T09:59:03;5.70;;;2.88;;
48613;SDS011;34408;51.426;5.444;2023-04-15T10:01:31;6.20;;;2.80;;
48613;SDS011;34408;51.426;5.444;2023-04-15T10:04:00;3.88;;;2.42;;
48613;SDS011;34408;51.426;5.444;2023-04-15T10:06:31;4.38;;;2.38;;
48613;SDS011;34408;51.426;5.444;2023-04-15T10:09:00;10.15;;;2.75;;
48613;SDS011;34408;51.426;5.444;2023-04-15T10:11:30;4.38;;;2.50;;
48613;SDS011;34408;51.426;5.444;2023-04-15T10:13:59;4.97;;;3.10;;
48613;SDS011;34408;51.426;5.444;2023-04-15T10:16:27;5.25;;;2.00;;
48613;SDS011;34408;51.426;5.444;2023-04-15T10:19:00;4.43;;;2.25;;
48613;SDS011;34408;51.426;5.444;2023-04-15T10:21:29;5.20;;;2.13;;
48613;SDS011;34408;51.426;5.444;2023-04-15T10:23:57;7.05;;;2.03;;
48613;SDS011;34408;51.426;5.444;2023-04-15T10:26:25;4.88;;;2.20;;
48613;SDS011;34408;51.426;5.444;2023-04-15T10:28:55;7.00;;;2.78;;
48613;SDS011;34408;51.426;5.444;2023-04-15T10:31:25;5.13;;;2.47;;
48613;SDS011;34408;51.426;5.444;2023-04-15T10:33:53;5.25;;;2.63;;
48613;SDS011;34408;51.426;5.444;2023-04-15T10:36:21;4.38;;;2.22;;
48613;SDS011;34408;51.426;5.444;2023-04-15T10:38:49;5.30;;;2.33;;
48613;SDS011;34408;51.426;5.444;2023-04-15T10:41:18;3.78;;;2.38;;
48613;SDS011;34408;51.426;5.444;2023-04-15T10:43:48;5.35;;;2.38;;
48613;SDS011;34408;51.426;5.444;2023-04-15T10:46:20;3.72;;;1.90;;
48613;SDS011;34408;51.426;5.444;2023-04-15T10:48:51;2.95;;;2.10;;
48613;SDS011;34408;51.426;5.444;2023-04-15T10:51:27;2.75;;;1.85;;
48613;SDS011;34408;51.426;5.444;2023-04-15T10:53:56;5.35;;;1.90;;
48613;SDS011;34408;51.426;5.444;2023-04-15T10:56:27;4.88;;;1.65;;
48613;SDS011;34408;51.426;5.444;2023-04-15T10:58:57;3.50;;;2.00;;
48613;SDS011;34408;51.426;5.444;2023-04-15T11:07:33;3.97;;;2.05;;
48613;SDS011;34408;51.426;5.444;2023-04-15T11:13:19;3.80;;;2.97;;
48613;SDS011;34408;51.426;5.444;2023-04-15T11:15:49;4.60;;;2.97;;
48613;SDS011;34408;51.426;5.444;2023-04-15T11:18:19;10.15;;;2.30;;
48613;SDS011;34408;51.426;5.444;2023-04-15T11:20:48;2.92;;;2.08;;
48613;SDS011;34408;51.426;5.444;2023-04-15T11:23:18;5.43;;;1.95;;
48613;SDS011;34408;51.426;5.444;2023-04-15T11:25:47;3.55;;;1.73;;
48613;SDS011;34408;51.426;5.444;2023-04-15T11:28:15;5.38;;;1.88;;
48613;SDS011;34408;51.426;5.444;2023-04-15T11:30:42;3.40;;;1.80;;
48613;SDS011;34408;51.426;5.444;2023-04-15T11:33:10;5.40;;;2.00;;
48613;SDS011;34408;51.426;5.444;2023-04-15T11:35:41;2.05;;;1.45;;
48613;SDS011;34408;51.426;5.444;2023-04-15T11:38:09;4.20;;;1.40;;
48613;SDS011;34408;51.426;5.444;2023-04-15T11:40:39;2.97;;;1.70;;
48613;SDS011;34408;51.426;5.444;2023-04-15T11:43:11;3.03;;;1.83;;
48613;SDS011;34408;51.426;5.444;2023-04-15T11:45:48;5.97;;;1.75;;
48613;SDS011;34408;51.426;5.444;2023-04-15T11:48:18;2.97;;;1.58;;
48613;SDS011;34408;51.426;5.444;2023-04-15T11:50:52;4.22;;;1.90;;
48613;SDS011;34408;51.426;5.444;2023-04-15T11:53:21;3.97;;;1.38;;
48613;SDS011;34408;51.426;5.444;2023-04-15T11:55:50;4.28;;;1.92;;
48613;SDS011;34408;51.426;5.444;2023-04-15T11:58:20;3.60;;;1.88;;
48613;SDS011;34408;51.426;5.444;2023-04-15T12:00:50;2.70;;;1.92;;
48613;SDS011;34408;51.426;5.444;2023-04-15T12:03:23;3.97;;;1.90;;
48613;SDS011;34408;51.426;5.444;2023-04-15T12:08:47;2.83;;;1.63;;
48613;SDS011;34408;51.426;5.444;2023-04-15T12:11:19;3.70;;;2.08;;
48613;SDS011;34408;51.426;5.444;2023-04-15T12:13:48;2.67;;;1.60;;
48613;SDS011;34408;51.426;5.444;2023-04-15T12:16:16;2.50;;;1.60;;
48613;SDS011;34408;51.426;5.444;2023-04-15T12:18:45;3.42;;;2.17;;
48613;SDS011;34408;51.426;5.444;2023-04-15T12:21:13;5.57;;;1.52;;
48613;SDS011;34408;51.426;5.444;2023-04-15T12:23:47;3.03;;;1.50;;
48613;SDS011;34408;51.426;5.444;2023-04-15T12:26:16;3.63;;;1.52;;
48613;SDS011;34408;51.426;5.444;2023-04-15T12:28:44;2.83;;;2.00;;
48613;SDS011;34408;51.426;5.444;2023-04-15T12:31:12;2.75;;;1.65;;
48613;SDS011;34408;51.426;5.444;2023-04-15T12:33:40;5.28;;;2.20;;
48613;SDS011;34408;51.426;5.444;2023-04-15T12:36:08;2.47;;;1.77;;
48613;SDS011;34408;51.426;5.444;2023-04-15T12:38:36;3.28;;;1.58;;
48613;SDS011;34408;51.426;5.444;2023-04-15T12:41:05;3.75;;;1.55;;
48613;SDS011;34408;51.426;5.444;2023-04-15T12:43:33;4.60;;;1.80;;
48613;SDS011;34408;51.426;5.444;2023-04-15T12:46:01;2.08;;;1.30;;
48613;SDS011;34408;51.426;5.444;2023-04-15T12:48:30;3.25;;;1.45;;
48613;SDS011;34408;51.426;5.444;2023-04-15T12:50:58;3.85;;;1.48;;
48613;SDS011;34408;51.426;5.444;2023-04-15T12:53:26;2.70;;;1.90;;
48613;SDS011;34408;51.426;5.444;2023-04-15T12:55:54;3.70;;;1.90;;
48613;SDS011;34408;51.426;5.444;2023-04-15T12:58:23;3.63;;;2.15;;
48613;SDS011;34408;51.426;5.444;2023-04-15T13:00:50;3.22;;;2.00;;
48613;SDS011;34408;51.426;5.444;2023-04-15T13:03:18;2.47;;;1.70;;
48613;SDS011;34408;51.426;5.444;2023-04-15T13:05:46;3.13;;;1.77;;
48613;SDS011;34408;51.426;5.444;2023-04-15T13:08:14;2.38;;;1.40;;
48613;SDS011;34408;51.426;5.444;2023-04-15T13:10:42;3.03;;;1.60;;
48613;SDS011;34408;51.426;5.444;2023-04-15T13:13:09;3.08;;;1.92;;
48613;SDS011;34408;51.426;5.444;2023-04-15T13:15:39;2.38;;;1.63;;
48613;SDS011;34408;51.426;5.444;2023-04-15T13:18:06;5.47;;;2.00;;
48613;SDS011;34408;51.426;5.444;2023-04-15T13:20:34;4.82;;;1.70;;
48613;SDS011;34408;51.426;5.444;2023-04-15T13:23:02;3.72;;;1.67;;
48613;SDS011;34408;51.426;5.444;2023-04-15T13:25:30;2.42;;;1.60;;
48613;SDS011;34408;51.426;5.444;2023-04-15T13:27:58;3.67;;;2.25;;
48613;SDS011;34408;51.426;5.444;2023-04-15T13:30:26;3.20;;;1.55;;
48613;SDS011;34408;51.426;5.444;2023-04-15T13:32:55;4.05;;;1.60;;
48613;SDS011;34408;51.426;5.444;2023-04-15T13:35:23;3.25;;;1.48;;
48613;SDS011;34408;51.426;5.444;2023-04-15T13:37:52;2.85;;;1.63;;
48613;SDS011;34408;51.426;5.444;2023-04-15T13:40:20;2.97;;;1.40;;
48613;SDS011;34408;51.426;5.444;2023-04-15T13:42:48;1.60;;;1.17;;
48613;SDS011;34408;51.426;5.444;2023-04-15T13:45:15;2.55;;;1.30;;
48613;SDS011;34408;51.426;5.444;2023-04-15T13:47:43;4.32;;;1.80;;
48613;SDS011;34408;51.426;5.444;2023-04-15T13:50:13;2.20;;;1.23;;
48613;SDS011;34408;51.426;5.444;2023-04-15T13:52:40;2.00;;;1.30;;
48613;SDS011;34408;51.426;5.444;2023-04-15T13:55:08;6.13;;;1.30;;
48613;SDS011;34408;51.426;5.444;2023-04-15T13:57:47;3.72;;;1.20;;
48613;SDS011;34408;51.426;5.444;2023-04-15T14:00:15;3.53;;;1.30;;
48613;SDS011;34408;51.426;5.444;2023-04-15T14:02:43;3.13;;;1.10;;
48613;SDS011;34408;51.426;5.444;2023-04-15T14:05:13;4.15;;;2.03;;
48613;SDS011;34408;51.426;5.444;2023-04-15T14:07:40;2.92;;;1.25;;
48613;SDS011;34408;51.426;5.444;2023-04-15T14:10:09;6.10;;;1.40;;
48613;SDS011;34408;51.426;5.444;2023-04-15T14:12:37;6.40;;;1.38;;
48613;SDS011;34408;51.426;5.444;2023-04-15T14:15:05;4.47;;;1.38;;
48613;SDS011;34408;51.426;5.444;2023-04-15T14:17:34;2.75;;;1.30;;
48613;SDS011;34408;51.426;5.444;2023-04-15T14:20:01;2.03;;;1.20;;
48613;SDS011;34408;51.426;5.444;2023-04-15T14:22:31;3.20;;;1.42;;
48613;SDS011;34408;51.426;5.444;2023-04-15T14:24:59;4.40;;;1.73;;
48613;SDS011;34408;51.426;5.444;2023-04-15T14:27:27;2.40;;;1.15;;
48613;SDS011;34408;51.426;5.444;2023-04-15T14:29:55;2.80;;;1.20;;
48613;SDS011;34408;51.426;5.444;2023-04-15T14:32:23;3.63;;;1.20;;
48613;SDS011;34408;51.426;5.444;2023-04-15T14:34:51;1.95;;;1.20;;
48613;SDS011;34408;51.426;5.444;2023-04-15T14:37:26;2.88;;;1.22;;
48613;SDS011;34408;51.426;5.444;2023-04-15T14:39:55;4.07;;;1.23;;
48613;SDS011;34408;51.426;5.444;2023-04-15T14:42:23;3.45;;;1.33;;
48613;SDS011;34408;51.426;5.444;2023-04-15T14:44:50;1.98;;;1.20;;
48613;SDS011;34408;51.426;5.444;2023-04-15T14:47:18;3.28;;;1.30;;
48613;SDS011;34408;51.426;5.444;2023-04-15T14:49:46;3.67;;;1.30;;
48613;SDS011;34408;51.426;5.444;2023-04-15T14:52:14;3.13;;;1.42;;
48613;SDS011;34408;51.426;5.444;2023-04-15T14:54:41;2.65;;;1.42;;
48613;SDS011;34408;51.426;5.444;2023-04-15T14:57:11;22.88;;;2.20;;
48613;SDS011;34408;51.426;5.444;2023-04-15T14:59:38;21.05;;;3.13;;
48613;SDS011;34408;51.426;5.444;2023-04-15T15:02:06;10.30;;;1.95;;
48613;SDS011;34408;51.426;5.444;2023-04-15T15:04:35;11.07;;;2.47;;
48613;SDS011;34408;51.426;5.444;2023-04-15T15:07:03;12.20;;;2.67;;